Time;durP1;ratioP1;P1;durP2;ratioP2;P2;SDS_P1;SDS_P2;PMS_P1;PMS_P2;Temp;Humidity;BMP_temperature;BMP_pressure;BME280_temperature;BME280_humidity;BME280_pressure;Samples;Min_cycle;Max_cycle;Signal;HPM_P1;HPM_P2
2023/08/21 00:01:48;;;;;;;4.22;1.65;;;;;;;17.42;78.88;101108.31;5011188;28;20140;-43
2023/08/21 00:04:14;;;;;;;5.47;2.97;;;;;;;17.41;78.94;101113.09;5011279;28;20049;-42
2023/08/21 00:06:41;;;;;;;7.63;1.30;;;;;;;17.39;79.25;101106.25;5014033;28;20233;-42
2023/08/21 00:09:08;;;;;;;4.20;1.45;;;;;;;17.40;79.28;101108.66;5011392;28;20049;-42
2023/08/21 00:11:35;;;;;;;6.25;1.67;;;;;;;17.38;79.37;101113.84;5011509;28;20100;-43
2023/08/21 00:14:02;;;;;;;6.38;1.23;;;;;;;17.38;79.54;101119.44;4993576;28;20056;-43
2023/08/21 00:16:29;;;;;;;6.53;1.50;;;;;;;17.37;79.58;101117.81;4993785;28;20053;-42
2023/08/21 00:18:56;;;;;;;6.47;1.10;;;;;;;17.35;79.69;101108.19;5011062;28;20431;-44
2023/08/21 00:21:23;;;;;;;7.13;1.38;;;;;;;17.35;79.74;101108.19;5011933;28;20396;-42
2023/08/21 00:23:50;;;;;;;6.65;1.30;;;;;;;17.34;79.83;101103.81;5009433;28;20050;-43
2023/08/21 00:26:17;;;;;;;6.47;1.20;;;;;;;17.31;79.99;101102.59;5007037;28;20045;-42
2023/08/21 00:28:44;;;;;;;4.28;1.58;;;;;;;17.32;80.16;101104.19;5008615;28;20500;-44
2023/08/21 00:31:12;;;;;;;8.57;1.40;;;;;;;17.31;80.02;101099.78;5007642;28;20798;-45
2023/08/21 00:33:39;;;;;;;4.38;1.15;;;;;;;17.31;80.07;101102.59;4990288;28;20488;-42
2023/08/21 00:36:06;;;;;;;7.60;1.40;;;;;;;17.31;80.14;101104.56;5008990;28;20128;-42
2023/08/21 00:38:33;;;;;;;6.82;1.33;;;;;;;17.29;80.26;101116.13;5010601;28;20050;-42
2023/08/21 00:41:00;;;;;;;13.05;2.75;;;;;;;17.28;80.35;101119.31;5010034;28;20069;-43
2023/08/21 00:43:27;;;;;;;4.53;1.10;;;;;;;17.28;80.58;101102.53;5008775;28;20038;-42
2023/08/21 00:45:54;;;;;;;11.75;1.63;;;;;;;17.26;80.47;101108.50;5003418;28;20050;-42
2023/08/21 00:48:21;;;;;;;2.72;0.77;;;;;;;17.26;80.79;101104.91;5009692;28;20045;-43
2023/08/21 00:50:48;;;;;;;13.95;2.10;;;;;;;17.25;80.74;101104.09;5008047;28;20054;-42
2023/08/21 00:53:15;;;;;;;7.03;2.45;;;;;;;17.25;80.94;101104.09;5012344;28;20412;-43
2023/08/21 00:55:42;;;;;;;6.55;1.40;;;;;;;17.23;80.88;101106.50;5009262;28;20045;-44
2023/08/21 00:58:13;;;;;;;4.55;1.25;;;;;;;17.23;80.90;101112.09;5014739;28;20053;-43
2023/08/21 01:00:41;;;;;;;5.60;1.00;;;;;;;17.22;81.11;101118.84;5014872;28;20085;-42
2023/08/21 01:03:08;;;;;;;6.00;2.25;;;;;;;17.21;81.17;101111.63;5014065;28;20045;-43
2023/08/21 01:05:36;;;;;;;5.00;1.08;;;;;;;17.22;81.18;101120.84;5014422;28;20050;-43
2023/08/21 01:08:09;;;;;;;6.47;0.98;;;;;;;17.20;81.28;101118.44;5014517;28;20045;-42
2023/08/21 01:10:44;;;;;;;6.15;1.40;;;;;;;17.21;81.49;101113.66;5014238;28;20052;-43
2023/08/21 01:13:36;;;;;;;4.93;1.25;;;;;;;17.19;81.69;101108.41;5013536;28;20046;-42
2023/08/21 01:16:05;;;;;;;7.68;1.10;;;;;;;17.16;81.56;101106.38;5013108;28;20046;-43
2023/08/21 01:18:34;;;;;;;5.25;1.30;;;;;;;17.16;81.81;101111.97;5014261;28;20049;-42
2023/08/21 01:21:04;;;;;;;10.40;1.67;;;;;;;17.14;81.76;101102.34;5014089;28;20056;-42
2023/08/21 01:23:32;;;;;;;8.32;1.52;;;;;;;17.14;81.97;101105.97;5002162;28;20127;-42
2023/08/21 01:25:59;;;;;;;6.47;2.22;;;;;;;17.16;81.97;101105.56;5011640;28;20046;-42
2023/08/21 01:28:26;;;;;;;5.80;1.20;;;;;;;17.13;82.08;101095.94;5011196;28;20049;-44
2023/08/21 01:31:01;;;;;;;5.78;1.20;;;;;;;17.12;82.33;101101.94;4997797;28;20070;-42
2023/08/21 01:33:33;;;;;;;2.85;0.73;;;;;;;17.12;82.30;101111.13;5013325;28;20060;-42
2023/08/21 01:36:03;;;;;;;3.33;1.17;;;;;;;17.11;82.29;101109.50;5008986;28;20125;-43
2023/08/21 01:38:33;;;;;;;2.47;0.95;;;;;;;17.10;82.61;101102.31;5010219;28;20041;-42
2023/08/21 01:41:00;;;;;;;2.47;0.88;;;;;;;17.09;82.68;101099.88;5004825;28;20046;-42
2023/08/21 01:43:27;;;;;;;8.70;1.20;;;;;;;17.07;82.68;101097.50;5008327;28;20045;-42
2023/08/21 01:45:54;;;;;;;6.47;1.08;;;;;;;17.06;82.89;101087.47;5012278;28;20435;-43
2023/08/21 01:48:21;;;;;;;3.42;0.90;;;;;;;17.05;82.87;101095.06;5009696;28;20195;-42
2023/08/21 01:50:48;;;;;;;2.55;0.80;;;;;;;17.04;83.05;101093.47;5011651;28;20053;-43
2023/08/21 01:53:15;;;;;;;6.53;1.48;;;;;;;17.07;83.02;101091.88;5005872;28;20042;-42
2023/08/21 01:55:42;;;;;;;3.03;1.10;;;;;;;17.06;83.11;101090.28;5008900;28;20038;-42
2023/08/21 01:58:09;;;;;;;2.45;1.02;;;;;;;17.04;83.20;101081.47;5013682;28;20068;-43
2023/08/21 02:00:36;;;;;;;3.85;1.00;;;;;;;17.02;83.39;101078.25;5013324;28;20042;-43
2023/08/21 02:03:03;;;;;;;3.15;0.73;;;;;;;17.01;83.42;101080.22;5012936;28;20050;-42
2023/08/21 02:05:30;;;;;;;5.57;1.50;;;;;;;17.00;83.49;101081.41;5013922;28;20045;-42
2023/08/21 02:07:57;;;;;;;1.98;0.65;;;;;;;17.00;83.71;101086.19;5013286;28;20172;-45
2023/08/21 02:10:23;;;;;;;2.97;0.80;;;;;;;16.99;83.77;101081.81;5013564;28;20046;-43
2023/08/21 02:12:51;;;;;;;6.40;1.50;;;;;;;16.97;83.87;101084.19;5013434;28;20054;-43
2023/08/21 02:15:23;;;;;;;4.90;1.48;;;;;;;16.95;84.01;101078.13;4995601;28;20049;-42
2023/08/21 02:17:52;;;;;;;2.63;1.00;;;;;;;16.94;84.03;101082.13;5012687;28;20056;-42
2023/08/21 02:20:19;;;;;;;5.10;1.10;;;;;;;16.93;84.18;101069.31;5012300;28;20816;-42
2023/08/21 02:22:46;;;;;;;6.70;1.17;;;;;;;16.91;84.26;101066.94;5017574;28;20038;-42
2023/08/21 02:25:13;;;;;;;7.45;1.00;;;;;;;16.89;84.31;101072.06;5011515;28;20053;-42
2023/08/21 02:27:41;;;;;;;4.47;1.10;;;;;;;16.87;84.41;101062.44;5010619;28;20038;-42
2023/08/21 02:30:08;;;;;;;6.00;0.80;;;;;;;16.85;84.52;101062.84;5012237;28;20049;-41
2023/08/21 02:32:38;;;;;;;3.65;1.10;;;;;;;16.83;84.69;101058.81;5012092;28;20062;-42
2023/08/21 02:35:07;;;;;;;1.90;0.73;;;;;;;16.81;84.76;101061.19;5010647;28;20042;-44
2023/08/21 02:37:38;;;;;;;1.25;0.75;;;;;;;16.80;85.01;101060.38;5007975;28;20440;-45
2023/08/21 02:40:08;;;;;;;4.20;1.00;;;;;;;16.78;85.09;101057.16;5011044;28;20119;-42
2023/08/21 02:42:36;;;;;;;1.98;1.02;;;;;;;16.75;85.01;101068.28;5009859;28;20152;-42
2023/08/21 02:45:08;;;;;;;2.92;0.80;;;;;;;16.74;85.27;101066.66;5010082;28;20053;-42
2023/08/21 02:47:39;;;;;;;3.47;0.60;;;;;;;16.73;85.37;101059.50;5010286;28;20104;-42
2023/08/21 02:50:07;;;;;;;6.87;1.30;;;;;;;16.73;85.26;101067.88;5009047;28;20111;-42
2023/08/21 02:52:35;;;;;;;3.13;1.25;;;;;;;16.72;85.30;101069.84;5004113;28;20646;-43
2023/08/21 02:55:04;;;;;;;1.73;0.70;;;;;;;16.72;85.43;101063.44;5010876;28;20053;-42
2023/08/21 02:57:30;;;;;;;4.85;0.95;;;;;;;16.70;85.64;101057.44;5007543;28;20500;-42
2023/08/21 02:59:57;;;;;;;3.70;0.65;;;;;;;16.70;85.65;101054.66;5009155;28;20054;-42
2023/08/21 03:02:24;;;;;;;4.63;1.00;;;;;;;16.69;85.73;101058.63;5132466;22;20533;-44
2023/08/21 03:05:00;;;;;;;2.95;0.70;;;;;;;16.69;85.75;101053.84;5049219;28;20043;-41
2023/08/21 03:07:27;;;;;;;3.97;0.73;;;;;;;16.71;85.80;101061.84;5041407;28;20106;-42
2023/08/21 03:09:54;;;;;;;1.92;0.70;;;;;;;16.71;85.85;101051.47;5051019;28;20048;-42
2023/08/21 03:12:22;;;;;;;2.00;1.08;;;;;;;16.70;85.89;101044.28;5050387;28;20499;-42
2023/08/21 03:14:48;;;;;;;3.85;0.70;;;;;;;16.69;86.14;101047.44;5050144;28;20569;-42
2023/08/21 03:17:15;;;;;;;4.90;0.68;;;;;;;16.69;86.10;101050.22;5047813;28;20044;-42
2023/08/21 03:19:42;;;;;;;2.58;0.77;;;;;;;16.68;86.35;101043.81;5049978;28;20049;-42
2023/08/21 03:22:09;;;;;;;4.05;0.80;;;;;;;16.68;86.34;101040.25;5033184;28;20057;-42
2023/08/21 03:24:36;;;;;;;5.55;0.98;;;;;;;16.69;86.58;101037.06;5050606;28;20044;-44
2023/08/21 03:27:03;;;;;;;3.75;0.75;;;;;;;16.70;86.64;101035.88;5051601;28;20106;-41
2023/08/21 03:29:30;;;;;;;7.32;1.08;;;;;;;16.69;86.46;101031.47;5049626;28;20041;-41
2023/08/21 03:31:57;;;;;;;4.47;0.90;;;;;;;16.68;86.69;101029.06;5051387;28;20088;-41
2023/08/21 03:34:24;;;;;;;2.50;0.80;;;;;;;16.67;86.72;101027.44;5051225;28;20457;-42
2023/08/21 03:36:51;;;;;;;4.88;0.77;;;;;;;16.63;86.93;101026.56;5051611;28;20049;-42
2023/08/21 03:39:18;;;;;;;2.63;0.63;;;;;;;16.61;86.88;101014.97;5051393;28;20071;-41
2023/08/21 03:41:45;;;;;;;1.77;0.50;;;;;;;16.59;87.26;101020.16;5051488;28;20041;-42
2023/08/21 03:44:12;;;;;;;0.93;0.47;;;;;;;16.58;87.18;101012.94;5050862;28;20494;-42
2023/08/21 03:46:38;;;;;;;3.92;0.52;;;;;;;16.59;87.56;101014.56;5061850;28;20040;-41
2023/08/21 03:49:05;;;;;;;3.53;0.50;;;;;;;16.58;87.38;101019.34;5053459;28;20075;-42
2023/08/21 03:51:32;;;;;;;2.00;0.60;;;;;;;16.58;87.24;101018.53;5033677;28;20535;-41
2023/08/21 03:53:59;;;;;;;4.22;0.70;;;;;;;16.57;87.49;101030.91;5051103;28;20433;-42
2023/08/21 03:56:26;;;;;;;3.25;0.55;;;;;;;16.55;87.56;101024.91;5051008;28;20044;-42
2023/08/21 03:58:53;;;;;;;5.75;0.80;;;;;;;16.52;87.62;101025.63;5051013;28;20043;-41
2023/08/21 04:01:20;;;;;;;4.43;1.42;;;;;;;16.48;87.77;101022.78;5048535;28;20048;-43
2023/08/21 04:03:46;;;;;;;5.70;1.05;;;;;;;16.47;88.06;101031.53;5050556;28;20140;-43
2023/08/21 04:06:14;;;;;;;2.97;0.80;;;;;;;16.40;87.98;101024.66;5048391;28;20056;-42
2023/08/21 04:08:41;;;;;;;5.78;1.98;;;;;;;16.37;88.23;101031.00;5049191;28;20482;-41
2023/08/21 04:11:07;;;;;;;3.03;0.80;;;;;;;16.35;88.44;101021.38;5049257;28;20052;-42
2023/08/21 04:13:34;;;;;;;2.33;0.85;;;;;;;16.34;88.28;101019.75;5050718;28;20056;-42
2023/08/21 04:16:01;;;;;;;1.63;0.47;;;;;;;16.32;88.50;101016.53;5051011;28;20509;-42
2023/08/21 04:18:28;;;;;;;4.35;0.73;;;;;;;16.30;88.79;101011.34;5051127;28;20056;-42
2023/08/21 04:21:08;;;;;;;2.08;0.50;;;;;;;16.32;88.95;101011.78;5049336;28;20080;-42
2023/08/21 04:23:35;;;;;;;0.52;0.45;;;;;;;16.37;89.07;101011.44;5027867;28;20056;-43
2023/08/21 04:26:03;;;;;;;5.68;1.38;;;;;;;16.43;89.11;101011.91;5048792;28;20437;-41
2023/08/21 04:28:30;;;;;;;2.40;0.55;;;;;;;16.48;89.11;101014.38;5048491;28;20127;-42
2023/08/21 04:30:58;;;;;;;6.90;1.00;;;;;;;16.52;89.00;101011.66;5053687;28;20405;-42
2023/08/21 04:33:26;;;;;;;1.40;0.50;;;;;;;16.55;89.14;101016.50;5054248;28;20160;-45
2023/08/21 04:35:53;;;;;;;1.52;0.50;;;;;;;16.56;89.30;101021.72;5053778;28;20106;-43
2023/08/21 04:38:20;;;;;;;4.32;1.33;;;;;;;16.61;89.21;101028.94;5053975;28;20483;-41
2023/08/21 04:40:47;;;;;;;3.97;0.73;;;;;;;16.64;89.38;101022.59;5052305;28;20132;-44
2023/08/21 04:43:13;;;;;;;1.92;0.30;;;;;;;16.66;89.63;101021.03;5053630;28;20098;-42
2023/08/21 04:45:52;;;;;;;3.60;0.57;;;;;;;16.71;89.30;101028.28;5050010;28;20053;-42
2023/08/21 04:48:20;;;;;;;1.70;0.57;;;;;;;16.76;89.37;101019.59;5052968;28;20045;-44
2023/08/21 04:50:47;;;;;;;3.20;0.60;;;;;;;16.77;89.21;101013.59;5054119;28;20053;-42
2023/08/21 04:53:14;;;;;;;7.63;2.17;;;;;;;16.77;89.32;101010.00;5051043;28;20041;-42
2023/08/21 04:55:41;;;;;;;8.20;1.05;;;;;;;16.73;89.54;101015.53;5052352;28;20127;-42
2023/08/21 04:58:09;;;;;;;5.25;1.42;;;;;;;16.69;89.86;101014.69;5052385;28;20427;-41
2023/08/21 05:00:36;;;;;;;5.28;1.38;;;;;;;16.65;90.53;101004.66;5052324;28;20047;-43
2023/08/21 05:03:03;;;;;;;9.60;1.60;;;;;;;16.62;90.73;101008.22;5052376;28;20045;-43
2023/08/21 05:05:30;;;;;;;3.25;0.70;;;;;;;16.57;91.00;101006.56;5053439;28;20033;-42
2023/08/21 05:07:57;;;;;;;3.60;0.60;;;;;;;16.55;91.13;100999.75;5052626;28;20482;-41
2023/08/21 05:10:24;;;;;;;1.83;0.60;;;;;;;16.55;91.01;101002.53;5054480;28;20144;-42
2023/08/21 05:12:51;;;;;;;0.52;0.50;;;;;;;16.57;91.03;100989.78;5036594;28;20068;-42
2023/08/21 05:15:18;;;;;;;3.50;1.35;;;;;;;16.64;90.94;100987.06;5053950;28;20049;-42
2023/08/21 05:17:44;;;;;;;1.65;0.55;;;;;;;16.71;90.64;100997.53;5054058;28;20044;-42
2023/08/21 05:20:14;;;;;;;3.22;0.55;;;;;;;16.76;90.41;100997.22;5053759;28;20399;-42
2023/08/21 05:22:41;;;;;;;2.83;0.82;;;;;;;16.81;90.26;100996.88;5054052;28;20048;-41
2023/08/21 05:25:08;;;;;;;3.70;0.95;;;;;;;16.84;89.98;100996.91;5036349;28;20441;-42
2023/08/21 05:27:35;;;;;;;4.13;0.98;;;;;;;16.91;89.86;100993.41;5054122;28;20127;-42
2023/08/21 05:30:03;;;;;;;2.92;0.57;;;;;;;16.95;89.65;100991.44;5053953;28;20045;-41
2023/08/21 05:32:30;;;;;;;2.60;0.57;;;;;;;16.99;89.49;100990.31;5053751;28;20402;-43
2023/08/21 05:34:57;;;;;;;6.03;1.50;;;;;;;17.00;89.31;100974.31;5054036;28;20049;-41
2023/08/21 05:37:24;;;;;;;3.78;0.65;;;;;;;16.98;89.35;100976.69;5034925;28;20056;-42
2023/08/21 05:39:51;;;;;;;6.95;2.05;;;;;;;16.97;89.06;100970.28;5034171;28;20495;-41
2023/08/21 05:42:17;;;;;;;1.92;0.75;;;;;;;16.98;89.24;100971.09;5050553;28;20509;-41
2023/08/21 05:44:44;;;;;;;4.85;1.60;;;;;;;16.98;89.06;100982.28;5053105;28;20807;-41
2023/08/21 05:47:11;;;;;;;4.30;0.80;;;;;;;17.02;89.03;100985.94;5051308;28;20053;-41
2023/08/21 05:49:38;;;;;;;2.10;0.60;;;;;;;17.07;88.92;100988.38;5051775;28;20041;-42
2023/08/21 05:52:05;;;;;;;1.63;0.77;;;;;;;17.11;88.85;100989.22;5052309;28;20049;-41
2023/08/21 05:54:32;;;;;;;3.33;0.57;;;;;;;17.15;88.50;100980.88;5050855;28;20049;-42
2023/08/21 05:56:58;;;;;;;6.13;1.35;;;;;;;17.19;88.48;100988.09;5052371;28;20048;-42
2023/08/21 05:59:31;;;;;;;4.88;0.70;;;;;;;17.22;88.55;100992.13;5050002;28;20044;-41
2023/08/21 06:01:58;;;;;;;5.18;1.00;;;;;;;17.24;88.33;100987.75;5049992;28;20045;-42
2023/08/21 06:04:26;;;;;;;3.28;0.60;;;;;;;17.27;88.28;100975.78;5050524;28;20140;-41
2023/08/21 06:06:54;;;;;;;3.50;0.75;;;;;;;17.31;88.23;100990.63;5049469;28;20514;-41
2023/08/21 06:09:21;;;;;;;4.78;0.88;;;;;;;17.34;88.24;101003.06;5051397;28;20124;-42
2023/08/21 06:11:48;;;;;;;2.75;0.60;;;;;;;17.34;88.23;100989.84;5049523;28;20052;-41
2023/08/21 06:14:15;;;;;;;3.25;0.63;;;;;;;17.36;88.02;101001.47;5029710;28;21393;-42
2023/08/21 06:16:44;;;;;;;2.72;1.05;;;;;;;17.39;87.93;101005.50;5050772;28;20451;-42
2023/08/21 06:19:12;;;;;;;1.75;0.70;;;;;;;17.40;87.95;101013.50;5044358;28;20076;-40
2023/08/21 06:21:38;;;;;;;7.55;1.10;;;;;;;17.39;87.78;100997.91;5050751;28;20057;-42
2023/08/21 06:24:05;;;;;;;2.22;0.32;;;;;;;17.40;88.00;101007.91;5050262;28;20368;-42
2023/08/21 06:26:32;;;;;;;4.25;0.88;;;;;;;17.42;87.87;101016.72;5050208;28;20394;-42
2023/08/21 06:28:59;;;;;;;3.70;1.20;;;;;;;17.44;87.83;101011.56;5049997;28;20041;-42
2023/08/21 06:31:26;;;;;;;7.00;0.82;;;;;;;17.44;87.84;101005.97;5049929;28;20572;-43
2023/08/21 06:33:54;;;;;;;3.15;0.93;;;;;;;17.47;88.06;101016.38;5051818;28;20394;-43
2023/08/21 06:36:21;;;;;;;6.38;0.90;;;;;;;17.47;88.03;101010.75;5028855;28;20053;-42
2023/08/21 06:38:48;;;;;;;6.20;0.88;;;;;;;17.51;87.92;101011.63;5050261;28;20491;-47
2023/08/21 06:41:14;;;;;;;5.22;0.90;;;;;;;17.53;87.93;101009.25;5047868;28;20489;-41
2023/08/21 06:43:41;;;;;;;5.50;0.50;;;;;;;17.55;87.92;101012.47;5034350;28;20495;-42
2023/08/21 06:46:11;;;;;;;6.72;0.88;;;;;;;17.56;88.09;101007.69;5034699;28;20460;-42
2023/08/21 06:48:42;;;;;;;5.13;0.98;;;;;;;17.57;88.01;101009.31;5021201;28;20081;-41
2023/08/21 06:51:10;;;;;;;3.53;1.10;;;;;;;17.55;87.85;101018.06;5034409;28;20102;-42
2023/08/21 06:53:37;;;;;;;5.65;1.02;;;;;;;17.54;87.89;101010.88;5052556;28;20080;-43
2023/08/21 06:56:04;;;;;;;4.07;0.70;;;;;;;17.53;87.69;101014.84;5052373;28;20064;-42
2023/08/21 06:58:31;;;;;;;2.80;0.95;;;;;;;17.53;87.80;101014.84;5052276;28;20429;-42
2023/08/21 07:01:00;;;;;;;2.88;0.70;;;;;;;17.52;87.81;101018.84;5052076;28;20036;-42
2023/08/21 07:03:27;;;;;;;4.03;0.75;;;;;;;17.51;87.53;101025.63;5051521;28;20055;-42
2023/08/21 07:05:57;;;;;;;2.67;0.80;;;;;;;17.49;87.59;101018.78;5052081;28;20044;-42
2023/08/21 07:08:29;;;;;;;3.40;0.65;;;;;;;17.47;87.67;101024.75;5051494;28;20122;-42
2023/08/21 07:11:04;;;;;;;4.18;0.80;;;;;;;17.48;87.56;101028.38;5034298;28;20491;-42
2023/08/21 07:13:33;;;;;;;4.95;0.82;;;;;;;17.49;87.69;101036.41;5048682;28;20498;-43
2023/08/21 07:16:05;;;;;;;5.22;1.08;;;;;;;17.50;87.37;101038.00;5047170;28;20505;-43
2023/08/21 07:18:38;;;;;;;6.35;1.05;;;;;;;17.52;87.72;101032.84;5045904;28;20056;-42
2023/08/21 07:21:06;;;;;;;4.55;0.90;;;;;;;17.56;87.67;101036.50;5048026;28;20099;-43
2023/08/21 07:23:59;;;;;;;6.05;0.98;;;;;;;17.63;87.57;101030.94;5050701;28;20560;-42
2023/08/21 07:26:35;;;;;;;3.65;1.35;;;;;;;17.73;86.88;101028.63;5050154;28;20134;-41
2023/08/21 07:29:16;;;;;;;1.05;0.52;;;;;;;17.82;87.00;101040.34;5048823;28;20041;-43
2023/08/21 07:31:47;;;;;;;4.60;1.70;;;;;;;17.89;86.96;101037.59;5028054;28;20053;-41
2023/08/21 07:34:17;;;;;;;4.97;1.08;;;;;;;17.93;86.38;101041.22;5039641;28;20111;-43
2023/08/21 07:36:57;;;;;;;5.85;0.77;;;;;;;18.00;86.14;101039.25;5051478;28;20490;-41
2023/08/21 07:39:30;;;;;;;5.40;0.70;;;;;;;18.05;85.81;101035.31;5047871;28;20048;-40
2023/08/21 07:42:14;;;;;;;5.75;1.00;;;;;;;18.08;85.61;101035.31;5032758;28;20041;-40
2023/08/21 07:44:45;;;;;;;5.68;0.70;;;;;;;18.08;85.40;101031.75;5051046;28;20520;-42
2023/08/21 07:47:16;;;;;;;6.18;1.00;;;;;;;18.08;85.02;101023.34;5032223;28;20045;-41
2023/08/21 07:49:44;;;;;;;5.20;0.90;;;;;;;18.12;85.18;101024.16;5051727;28;20122;-42
2023/08/21 07:52:16;;;;;;;7.68;1.60;;;;;;;18.16;85.23;101039.00;5033588;28;20041;-41
2023/08/21 07:54:45;;;;;;;7.28;1.35;;;;;;;18.25;85.10;101040.25;5051174;28;20047;-41
2023/08/21 07:57:13;;;;;;;4.28;1.00;;;;;;;18.33;85.43;101041.13;5050952;28;20160;-44
2023/08/21 07:59:44;;;;;;;6.75;1.00;;;;;;;18.43;85.18;101037.56;5051127;28;20049;-42
2023/08/21 08:02:13;;;;;;;3.47;0.90;;;;;;;18.53;85.21;101025.63;5048344;28;20510;-42
2023/08/21 08:04:43;;;;;;;4.20;0.85;;;;;;;18.61;85.02;101030.09;5051140;28;20045;-43
2023/08/21 08:07:13;;;;;;;4.95;1.02;;;;;;;18.72;85.23;101036.56;5005370;28;20041;-43
2023/08/21 08:09:51;;;;;;;3.17;1.15;;;;;;;18.82;85.27;101032.22;5050782;28;20037;-43
2023/08/21 08:12:24;;;;;;;8.77;1.13;;;;;;;18.94;85.63;101037.47;5051066;28;20055;-41
2023/08/21 08:15:29;;;;;;;4.47;0.88;;;;;;;19.13;85.13;101031.53;5050903;28;20033;-44
2023/08/21 08:17:59;;;;;;;7.53;0.95;;;;;;;19.34;86.33;101033.56;5051038;28;20049;-44
2023/08/21 08:20:27;;;;;;;10.15;1.20;;;;;;;19.46;85.34;101041.66;5051011;28;20063;-42
2023/08/21 08:22:55;;;;;;;4.70;0.60;;;;;;;19.68;86.30;101034.88;5051321;28;20045;-40
2023/08/21 08:25:24;;;;;;;5.97;2.35;;;;;;;19.89;86.03;101026.44;5033093;28;20037;-42
2023/08/21 08:27:53;;;;;;;6.05;0.80;;;;;;;20.17;84.53;101033.25;5050296;28;20450;-42
2023/08/21 08:30:20;;;;;;;6.32;1.65;;;;;;;20.47;83.40;101033.63;5050515;28;20467;-44
2023/08/21 08:32:49;;;;;;;2.10;1.05;;;;;;;20.84;82.42;101038.72;5050814;28;20506;-41
2023/08/21 08:35:16;;;;;;;6.40;1.10;;;;;;;21.36;81.11;101040.53;5051082;28;20041;-41
2023/08/21 08:37:44;;;;;;;7.07;1.65;;;;;;;22.08;77.96;101044.47;5050576;28;20049;-40
2023/08/21 08:40:13;;;;;;;8.18;1.33;;;;;;;22.99;74.92;101034.22;5050857;28;20073;-41
2023/08/21 08:42:40;;;;;;;2.47;0.77;;;;;;;23.85;70.47;101045.94;5051105;28;20052;-41
2023/08/21 08:45:07;;;;;;;6.63;1.23;;;;;;;24.56;67.17;101048.34;5050687;28;20625;-41
2023/08/21 08:47:35;;;;;;;3.72;1.10;;;;;;;25.07;63.40;101041.28;5033015;28;20045;-41
2023/08/21 08:50:06;;;;;;;6.43;1.80;;;;;;;25.62;61.47;101044.09;5050643;28;20409;-41
2023/08/21 08:52:39;;;;;;;3.42;0.82;;;;;;;26.02;58.72;101033.38;5051097;28;20153;-42
2023/08/21 08:55:07;;;;;;;5.13;1.25;;;;;;;26.37;56.90;101051.56;5033524;28;20055;-41
2023/08/21 08:57:35;;;;;;;3.38;0.75;;;;;;;26.55;54.75;101037.69;5050615;28;20083;-41
2023/08/21 09:00:04;;;;;;;2.80;0.93;;;;;;;26.45;54.07;101038.78;5050758;28;20417;-41
2023/08/21 09:02:31;;;;;;;4.55;1.15;;;;;;;26.63;53.20;101043.97;5050462;28;20127;-41
2023/08/21 09:04:58;;;;;;;4.13;1.08;;;;;;;26.93;52.15;101041.47;5050377;28;20053;-41
2023/08/21 09:07:26;;;;;;;7.00;1.00;;;;;;;27.11;50.37;101036.06;5029955;28;20414;-42
2023/08/21 09:09:54;;;;;;;2.95;1.02;;;;;;;27.03;49.37;101031.84;5046699;28;20045;-41
2023/08/21 09:12:21;;;;;;;7.80;1.08;;;;;;;27.16;49.02;101032.66;5050584;28;20080;-41
2023/08/21 09:14:48;;;;;;;7.68;1.08;;;;;;;27.39;48.05;101033.59;5054124;28;20049;-41
2023/08/21 09:17:16;;;;;;;5.97;1.10;;;;;;;27.68;47.74;101034.31;5053844;28;20056;-41
2023/08/21 09:19:44;;;;;;;3.95;0.90;;;;;;;28.10;46.95;101032.94;5036258;28;20056;-41
2023/08/21 09:22:18;;;;;;;1.80;0.98;;;;;;;28.36;47.32;101030.81;5036344;28;20052;-42
2023/08/21 09:25:20;;;;;;;3.70;0.68;;;;;;;28.57;47.05;101023.56;5054140;28;20403;-41
2023/08/21 09:27:51;;;;;;;4.00;0.98;;;;;;;28.77;46.08;101041.97;4995637;28;20050;-44
2023/08/21 09:30:19;;;;;;;4.53;1.08;;;;;;;28.62;44.32;101037.25;5036996;28;20065;-43
2023/08/21 09:32:57;;;;;;;2.53;0.80;;;;;;;28.26;44.50;101043.38;5053663;28;20103;-41
2023/08/21 09:35:24;;;;;;;6.60;1.63;;;;;;;27.89;44.47;101036.47;5019454;28;20041;-41
2023/08/21 09:37:52;;;;;;;8.52;1.80;;;;;;;27.52;44.67;101032.41;5053685;28;20483;-46
2023/08/21 09:40:23;;;;;;;6.70;1.15;;;;;;;27.46;45.21;101033.41;5053866;28;20047;-41
2023/08/21 09:42:56;;;;;;;5.38;0.70;;;;;;;27.34;45.31;101020.75;5054371;28;20098;-41
2023/08/21 09:45:24;;;;;;;3.05;0.80;;;;;;;27.71;44.99;101016.34;5053508;28;20045;-41
2023/08/21 09:47:54;;;;;;;6.50;1.25;;;;;;;27.99;44.46;101014.59;5035706;28;20513;-42
2023/08/21 09:50:22;;;;;;;2.63;1.17;;;;;;;27.88;43.55;101014.94;5053248;28;20049;-41
2023/08/21 09:52:49;;;;;;;4.55;0.90;;;;;;;27.70;43.60;101026.13;5035972;28;20055;-42
2023/08/21 09:55:17;;;;;;;3.45;0.80;;;;;;;27.86;42.71;101011.75;5053020;28;20047;-41
2023/08/21 09:57:45;;;;;;;3.42;1.00;;;;;;;28.08;42.59;101012.69;5053377;28;20098;-41
2023/08/21 10:00:20;;;;;;;4.22;0.93;;;;;;;27.91;42.12;101014.03;5053890;28;20055;-42
2023/08/21 10:02:51;;;;;;;6.07;1.50;;;;;;;27.56;42.80;101007.47;5053204;28;20075;-43
2023/08/21 10:05:19;;;;;;;2.05;0.73;;;;;;;27.43;43.19;101009.50;5053444;28;20041;-44
2023/08/21 10:07:48;;;;;;;3.17;1.30;;;;;;;27.53;42.73;101024.66;5052952;28;20056;-42
2023/08/21 10:10:17;;;;;;;2.90;0.88;;;;;;;27.45;42.17;101009.88;5052806;28;20128;-42
2023/08/21 10:12:45;;;;;;;1.10;0.60;;;;;;;27.49;41.69;101041.84;5053109;28;20052;-38
2023/08/21 10:15:12;;;;;;;3.15;0.70;;;;;;;27.38;41.93;101017.78;5052998;28;20052;-43
2023/08/21 10:17:39;;;;;;;7.82;1.35;;;;;;;27.43;41.39;101020.88;5053526;28;20053;-42
2023/08/21 10:20:09;;;;;;;2.78;0.65;;;;;;;27.56;41.62;101009.53;5053079;28;20044;-42
2023/08/21 10:22:47;;;;;;;2.47;0.60;;;;;;;27.48;41.32;101020.31;5052716;28;20052;-43
2023/08/21 10:25:21;;;;;;;5.18;0.80;;;;;;;27.44;41.23;101021.69;5052579;28;20076;-44
2023/08/21 10:27:54;;;;;;;2.78;0.60;;;;;;;27.35;41.66;101010.97;5052965;28;20135;-45
2023/08/21 10:30:26;;;;;;;3.00;0.57;;;;;;;27.62;41.06;101004.84;5052519;28;20044;-43
2023/08/21 10:32:59;;;;;;;3.67;0.60;;;;;;;27.71;41.17;100996.44;5018055;28;20556;-43
2023/08/21 10:35:34;;;;;;;2.97;1.08;;;;;;;27.95;40.72;101008.22;5053084;28;20527;-43
2023/08/21 10:38:16;;;;;;;5.28;1.42;;;;;;;27.90;40.78;101003.91;5021286;28;20065;-43
2023/08/21 10:41:04;;;;;;;5.60;0.80;;;;;;;27.59;40.77;101000.06;5052432;28;20048;-43
2023/08/21 10:43:44;;;;;;;2.63;0.70;;;;;;;27.56;40.60;100998.16;5052576;28;20049;-43
2023/08/21 10:46:12;;;;;;;3.75;0.70;;;;;;;27.53;40.65;100990.53;5052492;28;20041;-43
2023/08/21 10:48:40;;;;;;;2.63;0.70;;;;;;;27.31;41.51;101009.47;5052372;28;20049;-43
2023/08/21 10:51:08;;;;;;;9.57;2.60;;;;;;;27.10;41.27;100985.34;5052896;28;20053;-43
2023/08/21 10:53:35;;;;;;;1.90;0.95;;;;;;;27.00;41.94;100978.75;5051990;28;20140;-42
2023/08/21 10:56:04;;;;;;;1.13;0.60;;;;;;;26.70;42.82;100981.25;5052390;28;20053;-42
2023/08/21 10:58:46;;;;;;;2.53;0.80;;;;;;;26.21;43.22;100981.41;5051744;28;20037;-42
2023/08/21 11:01:13;;;;;;;2.92;0.63;;;;;;;26.03;44.30;100979.00;5052137;28;20555;-42
2023/08/21 11:03:40;;;;;;;4.38;1.45;;;;;;;25.81;45.12;100972.31;5051515;28;20049;-44
2023/08/21 11:06:09;;;;;;;3.75;0.88;;;;;;;25.56;45.48;100977.00;5051922;28;20055;-42
2023/08/21 11:08:36;;;;;;;4.57;1.38;;;;;;;25.23;46.45;100964.81;5052456;28;20041;-42
2023/08/21 11:11:05;;;;;;;6.72;1.38;;;;;;;25.10;47.23;100966.72;5051746;28;20410;-42
2023/08/21 11:13:32;;;;;;;5.75;1.02;;;;;;;24.81;47.60;100972.19;5034028;28;20033;-42
2023/08/21 11:16:04;;;;;;;5.13;0.80;;;;;;;24.48;48.08;100979.75;5051797;28;20059;-42
2023/08/21 11:18:36;;;;;;;3.10;0.75;;;;;;;24.12;48.32;100962.63;5051702;28;20116;-43
2023/08/21 11:21:03;;;;;;;;;;;;;;;23.66;49.28;100954.16;5052286;28;20081;-44
2023/08/21 11:23:34;;;;;;;9.05;1.25;;;;;;;23.27;50.04;100966.03;5051782;28;19964;-44
2023/08/21 11:26:03;;;;;;;3.65;0.80;;;;;;;22.91;51.28;100960.09;5063986;28;20494;-44
2023/08/21 11:28:47;;;;;;;5.00;1.88;;;;;;;22.73;52.29;100950.25;5051649;28;20784;-47
2023/08/21 11:31:15;;;;;;;3.67;1.05;;;;;;;22.78;52.35;100955.44;5051494;28;20048;-42
2023/08/21 11:33:49;;;;;;;3.35;0.90;;;;;;;22.73;52.34;100958.72;5051881;28;20070;-42